Time;durP1;ratioP1;P1;durP2;ratioP2;P2;SDS_P1;SDS_P2;PMS_P1;PMS_P2;Temp;Humidity;BMP_temperature;BMP_pressure;BME280_temperature;BME280_humidity;BME280_pressure;Samples;Min_cycle;Max_cycle;Signal;HPM_P1;HPM_P2
2022/03/19 00:00:47;;;;;;;10.45;7.65;;;;;;;6.52;nan;104331.38;5070304;28;20512;-64
2022/03/19 00:03:12;;;;;;;9.85;6.55;;;;;;;6.48;nan;104341.34;5070268;28;20025;-64
2022/03/19 00:05:38;;;;;;;10.50;7.05;;;;;;;6.42;nan;104337.22;5070710;28;20055;-60
2022/03/19 00:08:04;;;;;;;12.50;7.20;;;;;;;6.42;nan;104334.66;5070194;28;20468;-64
2022/03/19 00:10:30;;;;;;;10.52;6.47;;;;;;;6.39;nan;104330.06;5070272;28;20187;-64
2022/03/19 00:12:55;;;;;;;11.07;6.50;;;;;;;6.39;nan;104340.38;5070116;28;20020;-64
2022/03/19 00:15:20;;;;;;;9.90;8.18;;;;;;;6.35;nan;104330.53;5069701;28;20036;-63
2022/03/19 00:17:46;;;;;;;11.07;6.90;;;;;;;6.34;nan;104341.56;5070270;28;20043;-64
2022/03/19 00:20:12;;;;;;;10.13;7.13;;;;;;;6.33;nan;104342.31;5070120;28;20554;-64
2022/03/19 00:22:38;;;;;;;8.93;6.93;;;;;;;6.32;nan;104332.75;5070031;28;20047;-63
2022/03/19 00:25:04;;;;;;;10.85;7.47;;;;;;;6.32;nan;104337.91;5069974;28;20056;-64
2022/03/19 00:27:30;;;;;;;11.45;6.85;;;;;;;6.28;nan;104325.47;5069598;28;20400;-63
2022/03/19 00:29:56;;;;;;;11.30;8.05;;;;;;;6.27;nan;104327.13;5069842;28;20024;-64
2022/03/19 00:32:21;;;;;;;10.15;7.20;;;;;;;6.28;nan;104333.19;5070021;28;20205;-61
2022/03/19 00:34:46;;;;;;;7.68;6.93;;;;;;;6.27;nan;104331.34;5069560;28;20032;-62
2022/03/19 00:37:12;;;;;;;8.50;7.13;;;;;;;6.27;nan;104321.06;5069895;28;20036;-63
2022/03/19 00:39:37;;;;;;;12.98;8.43;;;;;;;6.26;nan;104322.72;5069215;28;20611;-63
2022/03/19 00:42:03;;;;;;;11.68;7.50;;;;;;;6.23;nan;104323.31;5069439;28;20024;-63
2022/03/19 00:44:28;;;;;;;10.80;8.13;;;;;;;6.24;nan;104331.97;5070124;28;20114;-63
2022/03/19 00:46:53;;;;;;;9.05;8.10;;;;;;;6.22;nan;104329.19;5069773;28;20484;-64
2022/03/19 00:49:19;;;;;;;10.68;7.82;;;;;;;6.19;nan;104318.56;5068824;28;20023;-63
2022/03/19 00:51:44;;;;;;;9.18;7.75;;;;;;;6.18;nan;104323.56;5068169;28;20161;-62
2022/03/19 00:54:11;;;;;;;11.35;7.72;;;;;;;6.17;nan;104326.91;5069243;28;20107;-63
2022/03/19 00:56:36;;;;;;;9.95;7.85;;;;;;;6.11;nan;104324.59;5069087;28;20070;-64
2022/03/19 00:59:02;;;;;;;13.85;8.63;;;;;;;6.07;nan;104320.78;5068522;28;20040;-62
2022/03/19 01:01:28;;;;;;;11.95;8.00;;;;;;;6.05;nan;104323.88;5069058;28;20028;-63
2022/03/19 01:03:54;;;;;;;11.52;8.27;;;;;;;6.03;nan;104317.69;5069286;28;20055;-63
2022/03/19 01:06:19;;;;;;;10.88;8.38;;;;;;;6.00;nan;104320.84;5069756;28;20150;-63
2022/03/19 01:08:44;;;;;;;10.68;8.57;;;;;;;5.98;nan;104322.31;5068581;28;20028;-63
2022/03/19 01:11:10;;;;;;;9.35;8.20;;;;;;;5.92;nan;104320.00;5068655;28;20585;-64
2022/03/19 01:13:35;;;;;;;9.80;8.25;;;;;;;5.84;nan;104315.69;5069118;28;20033;-64
2022/03/19 01:16:02;;;;;;;11.80;9.18;;;;;;;5.83;nan;104321.63;5068897;28;20032;-64
2022/03/19 01:18:27;;;;;;;10.05;8.82;;;;;;;5.81;nan;104312.81;5068784;28;20028;-61
2022/03/19 01:20:53;;;;;;;11.82;9.15;;;;;;;5.76;nan;104315.78;5068199;28;20491;-63
2022/03/19 01:23:18;;;;;;;13.27;9.27;;;;;;;5.75;nan;104313.97;5068597;28;20028;-63
2022/03/19 01:25:43;;;;;;;11.15;8.90;;;;;;;5.71;nan;104314.38;5068413;28;20039;-64
2022/03/19 01:28:08;;;;;;;11.05;9.48;;;;;;;5.66;nan;104312.97;5068419;28;20423;-64
2022/03/19 01:30:34;;;;;;;11.35;9.88;;;;;;;5.61;nan;104309.00;5068214;28;20031;-64
2022/03/19 01:32:59;;;;;;;12.45;9.07;;;;;;;5.58;nan;104303.50;5068394;28;20036;-64
2022/03/19 01:35:24;;;;;;;13.70;10.55;;;;;;;5.54;nan;104307.41;5068557;28;20117;-61
2022/03/19 01:37:50;;;;;;;12.73;10.18;;;;;;;5.52;nan;104312.38;5068704;28;20086;-64
2022/03/19 01:40:17;;;;;;;13.68;10.57;;;;;;;5.47;nan;104308.41;5068998;28;20032;-63
2022/03/19 01:42:47;;;;;;;14.07;9.65;;;;;;;5.45;nan;104312.44;5068360;28;20579;-63
2022/03/19 01:45:17;;;;;;;12.77;10.95;;;;;;;5.38;nan;104307.38;5067852;28;20510;-58
2022/03/19 01:47:43;;;;;;;13.10;10.10;;;;;;;5.37;nan;104305.56;5068121;28;20024;-64
2022/03/19 01:50:10;;;;;;;13.53;11.13;;;;;;;5.33;nan;104299.19;5068246;28;20024;-63
2022/03/19 01:52:36;;;;;;;14.40;11.27;;;;;;;5.27;nan;104304.56;5068130;28;20115;-64
2022/03/19 01:55:04;;;;;;;13.73;11.48;;;;;;;5.23;nan;104305.00;5068016;28;20540;-64
2022/03/19 01:57:37;;;;;;;15.90;11.30;;;;;;;5.22;nan;104297.06;5067270;28;20028;-63
2022/03/19 02:00:05;;;;;;;13.73;12.40;;;;;;;5.20;nan;104289.19;5067817;28;20374;-63
2022/03/19 02:02:31;;;;;;;15.07;11.60;;;;;;;5.16;nan;104292.19;5067860;28;20552;-63
2022/03/19 02:04:59;;;;;;;12.73;11.43;;;;;;;5.17;nan;104294.00;5067808;28;20024;-60
2022/03/19 02:07:24;;;;;;;16.63;12.95;;;;;;;5.16;nan;104299.91;5067546;28;20107;-63
2022/03/19 02:09:49;;;;;;;16.33;13.60;;;;;;;5.16;nan;104289.63;5067363;28;20108;-63
2022/03/19 02:12:15;;;;;;;16.60;13.63;;;;;;;5.14;nan;104283.41;5067880;28;20441;-63
2022/03/19 02:14:40;;;;;;;14.38;12.82;;;;;;;5.15;nan;104280.06;5067946;28;20078;-63
2022/03/19 02:17:07;;;;;;;18.42;14.40;;;;;;;5.15;nan;104280.06;5067825;28;20032;-61
2022/03/19 02:19:33;;;;;;;18.77;13.82;;;;;;;5.14;nan;104280.81;5068199;28;20025;-57
2022/03/19 02:21:59;;;;;;;15.70;14.00;;;;;;;5.12;nan;104278.09;5068141;28;20136;-62
2022/03/19 02:27:08;;;;;;;19.42;14.52;;;;;;;5.15;nan;104265.56;5067238;28;20066;-63
2022/03/19 02:29:34;;;;;;;15.65;13.95;;;;;;;5.13;nan;104268.69;5067779;28;20028;-63
2022/03/19 02:32:05;;;;;;;15.85;14.10;;;;;;;5.11;nan;104265.06;5067480;28;20102;-64
2022/03/19 02:34:31;;;;;;;15.43;13.75;;;;;;;5.11;nan;104260.81;5067039;28;20032;-63
2022/03/19 02:36:57;;;;;;;16.50;14.05;;;;;;;5.08;nan;104254.44;5067445;28;20536;-64
2022/03/19 02:39:28;;;;;;;16.67;14.47;;;;;;;5.03;nan;104252.28;5067389;28;20024;-64
2022/03/19 02:41:53;;;;;;;;;;;;;;;5.01;nan;104251.19;5067920;28;20032;-63
2022/03/19 02:44:19;;;;;;;21.52;14.77;;;;;;;5.00;nan;104246.78;5067133;28;19916;-64
2022/03/19 02:46:48;;;;;;;16.40;14.60;;;;;;;4.99;nan;104247.53;5067860;28;20191;-63
2022/03/19 02:49:15;;;;;;;15.73;14.27;;;;;;;4.99;nan;104247.53;5067422;28;20032;-64
2022/03/19 02:51:43;;;;;;;19.33;14.47;;;;;;;4.99;nan;104247.53;5067265;28;20071;-64
2022/03/19 02:54:10;;;;;;;18.20;14.73;;;;;;;4.97;nan;104243.88;5066685;28;20036;-64
2022/03/19 02:56:38;;;;;;;17.73;15.37;;;;;;;4.97;nan;104242.97;5066517;28;20033;-63
2022/03/19 02:59:20;;;;;;;16.43;14.57;;;;;;;4.92;nan;104245.03;5067633;28;20080;-64
2022/03/19 03:01:49;;;;;;;17.73;15.10;;;;;;;4.90;nan;104241.38;5067444;28;20028;-62
2022/03/19 03:04:15;;;;;;;19.13;14.55;;;;;;;4.89;nan;104244.72;5066914;28;20036;-63
2022/03/19 03:06:43;;;;;;;18.07;13.83;;;;;;;4.87;nan;104249.69;5067122;28;20111;-63
2022/03/19 03:09:10;;;;;;;17.30;15.33;;;;;;;4.86;nan;104241.78;5067333;28;20032;-64
2022/03/19 03:11:36;;;;;;;17.40;14.23;;;;;;;4.85;nan;104247.69;5066816;28;20520;-60
2022/03/19 03:14:03;;;;;;;18.90;14.47;;;;;;;4.84;nan;104245.88;5067753;28;20501;-64
2022/03/19 03:16:29;;;;;;;18.95;14.95;;;;;;;4.80;nan;104245.50;5070942;28;20495;-63
2022/03/19 03:18:56;;;;;;;17.23;14.33;;;;;;;4.82;nan;104231.94;5070720;28;20020;-63
2022/03/19 03:21:22;;;;;;;20.07;14.20;;;;;;;4.79;nan;104242.75;5053081;28;20033;-63
2022/03/19 03:23:48;;;;;;;18.10;14.40;;;;;;;4.75;nan;104236.38;5070965;28;20059;-64
2022/03/19 03:26:13;;;;;;;20.93;15.20;;;;;;;4.74;nan;104242.28;5071342;28;20577;-63
2022/03/19 03:28:38;;;;;;;18.38;14.18;;;;;;;4.72;nan;104241.19;5070479;28;20078;-64
2022/03/19 03:31:04;;;;;;;18.00;14.17;;;;;;;4.71;nan;104233.31;5070691;28;20021;-64
2022/03/19 03:33:29;;;;;;;20.00;15.00;;;;;;;4.71;nan;104248.72;5071075;28;20529;-61
2022/03/19 03:35:55;;;;;;;18.07;14.07;;;;;;;4.69;nan;104241.75;5071241;28;20390;-64
2022/03/19 03:38:20;;;;;;;15.77;14.13;;;;;;;4.69;nan;104248.56;5071008;28;20028;-63
2022/03/19 03:40:45;;;;;;;18.75;14.77;;;;;;;4.70;nan;104242.66;5070011;28;20175;-61
2022/03/19 03:43:11;;;;;;;15.80;14.10;;;;;;;4.68;nan;104246.72;5069738;28;20039;-63
2022/03/19 03:45:36;;;;;;;18.33;14.30;;;;;;;4.68;nan;104241.56;5070500;28;20028;-61
2022/03/19 03:48:02;;;;;;;21.87;14.53;;;;;;;4.67;nan;104238.13;5070418;28;20043;-60
2022/03/19 03:50:27;;;;;;;17.57;14.17;;;;;;;4.67;nan;104242.34;5070462;28;20111;-64
2022/03/19 03:52:53;;;;;;;19.40;13.73;;;;;;;4.68;nan;104239.00;5070646;28;20449;-64
2022/03/19 03:55:19;;;;;;;16.92;13.50;;;;;;;4.67;nan;104238.13;5070617;28;20123;-64
2022/03/19 03:57:44;;;;;;;16.98;14.25;;;;;;;4.65;nan;104234.47;5070253;28;20028;-64
2022/03/19 04:00:10;;;;;;;17.57;13.07;;;;;;;4.64;nan;104234.28;5070159;28;20394;-61
2022/03/19 04:02:36;;;;;;;17.33;12.90;;;;;;;4.66;nan;104240.50;5070565;28;20056;-64
2022/03/19 04:05:03;;;;;;;17.43;13.30;;;;;;;4.65;nan;104234.47;5069685;28;20029;-64
2022/03/19 04:07:29;;;;;;;21.27;13.77;;;;;;;4.65;nan;104233.53;5070120;28;20495;-64
2022/03/19 04:09:54;;;;;;;16.77;12.13;;;;;;;4.63;nan;104228.22;5069969;28;20068;-64
2022/03/19 04:12:22;;;;;;;16.23;13.23;;;;;;;4.63;nan;104224.75;5070269;28;20024;-63
2022/03/19 04:14:47;;;;;;;15.90;13.80;;;;;;;4.60;nan;104220.19;5070321;28;20033;-62
2022/03/19 04:17:12;;;;;;;17.53;12.83;;;;;;;4.59;nan;104218.34;5069587;28;20077;-63
2022/03/19 04:19:38;;;;;;;15.57;13.63;;;;;;;4.57;nan;104222.41;5070072;28;20024;-62
2022/03/19 04:22:03;;;;;;;19.17;13.60;;;;;;;4.56;nan;104226.66;5069796;28;20066;-63
2022/03/19 04:24:29;;;;;;;19.90;12.50;;;;;;;4.56;nan;104223.16;5070055;28;20468;-63
2022/03/19 04:26:54;;;;;;;18.63;12.37;;;;;;;4.55;nan;104222.22;5068536;28;20024;-64
2022/03/19 04:29:19;;;;;;;16.70;12.67;;;;;;;4.52;nan;104220.97;5069720;28;20032;-64
2022/03/19 04:31:45;;;;;;;16.17;12.97;;;;;;;4.51;nan;104216.59;5069769;28;20028;-61
2022/03/19 04:34:10;;;;;;;16.13;12.73;;;;;;;4.48;nan;104218.81;5069386;28;20465;-63
2022/03/19 04:36:38;;;;;;;16.70;12.70;;;;;;;4.48;nan;104219.72;5069686;28;20108;-63
2022/03/19 04:39:04;;;;;;;16.40;12.27;;;;;;;4.46;nan;104215.16;5069416;28;20033;-62
2022/03/19 04:41:30;;;;;;;16.80;13.07;;;;;;;4.43;nan;104205.44;5069618;28;20388;-63
2022/03/19 04:43:56;;;;;;;17.67;12.43;;;;;;;4.42;nan;104203.63;5069401;28;20051;-63
2022/03/19 04:46:21;;;;;;;19.70;13.17;;;;;;;4.39;nan;104204.19;5068897;28;20028;-63
2022/03/19 04:48:47;;;;;;;16.40;12.70;;;;;;;4.36;nan;104203.88;5069602;28;20039;-63
2022/03/19 04:51:16;;;;;;;17.87;12.30;;;;;;;4.35;nan;104198.56;5069286;28;20086;-62
2022/03/19 04:53:41;;;;;;;16.13;12.80;;;;;;;4.34;nan;104205.34;5068238;28;20028;-63
2022/03/19 04:56:07;;;;;;;15.37;12.53;;;;;;;4.33;nan;104201.84;5069428;28;20046;-63
2022/03/19 04:58:35;;;;;;;21.63;13.37;;;;;;;4.32;nan;104207.75;5069191;28;20128;-62
2022/03/19 05:01:00;;;;;;;18.83;13.77;;;;;;;4.31;nan;104208.50;5069076;28;20025;-61
2022/03/19 05:03:26;;;;;;;18.53;13.00;;;;;;;4.28;nan;104209.81;5069193;28;20078;-64
2022/03/19 05:05:52;;;;;;;18.67;13.57;;;;;;;4.26;nan;104207.06;5069324;28;20021;-62
2022/03/19 05:08:17;;;;;;;15.43;13.17;;;;;;;4.23;nan;104201.56;5069122;28;20060;-63
2022/03/19 05:13:27;;;;;;;15.83;13.43;;;;;;;4.18;nan;104208.78;5068854;28;20035;-63
2022/03/19 05:15:53;;;;;;;18.80;13.87;;;;;;;4.16;nan;104209.31;5068782;28;20024;-64
2022/03/19 05:18:19;;;;;;;17.07;13.23;;;;;;;4.13;nan;104209.91;5069139;28;20461;-63
2022/03/19 05:20:44;;;;;;;18.17;13.63;;;;;;;4.12;nan;104215.75;5068722;28;20028;-61
2022/03/19 05:23:10;;;;;;;16.17;13.87;;;;;;;4.11;nan;104213.03;5068918;28;20380;-64
2022/03/19 05:25:35;;;;;;;18.53;12.83;;;;;;;4.09;nan;104218.00;5068687;28;20028;-59
2022/03/19 05:28:01;;;;;;;16.10;14.10;;;;;;;4.08;nan;104222.19;5068499;28;20103;-62
2022/03/19 05:30:26;;;;;;;20.63;15.10;;;;;;;4.05;nan;104219.31;5066952;28;20792;-63
2022/03/19 05:32:52;;;;;;;17.63;14.00;;;;;;;4.05;nan;104219.31;5066819;28;20675;-63
2022/03/19 05:35:20;;;;;;;19.63;14.60;;;;;;;4.02;nan;104221.53;5066778;28;20479;-59
2022/03/19 05:37:49;;;;;;;16.47;13.33;;;;;;;4.01;nan;104227.38;5066304;28;20029;-63
2022/03/19 05:40:14;;;;;;;21.47;14.00;;;;;;;4.01;nan;104229.06;5067333;28;20495;-64
2022/03/19 05:42:40;;;;;;;20.87;14.13;;;;;;;3.99;nan;104216.06;5068418;28;20131;-64
2022/03/19 05:45:05;;;;;;;19.50;14.07;;;;;;;3.99;nan;104222.84;5068857;28;20020;-61
2022/03/19 05:47:31;;;;;;;18.67;15.07;;;;;;;3.98;nan;104216.78;5068640;28;20032;-60
2022/03/19 05:49:56;;;;;;;17.10;13.87;;;;;;;3.97;nan;104217.53;5067890;28;20028;-61
2022/03/19 05:52:21;;;;;;;17.80;14.07;;;;;;;3.94;nan;104225.78;5068248;28;20035;-62
2022/03/19 05:54:47;;;;;;;19.37;14.93;;;;;;;3.94;nan;104227.47;5068262;28;20027;-64
2022/03/19 05:57:12;;;;;;;21.03;13.50;;;;;;;3.95;nan;104226.69;5068279;28;20388;-64
2022/03/19 05:59:37;;;;;;;16.90;13.57;;;;;;;3.96;nan;104225.94;5067813;28;20090;-65
2022/03/19 06:02:05;;;;;;;17.07;14.10;;;;;;;3.99;nan;104221.19;5067668;28;20404;-64
2022/03/19 06:04:31;;;;;;;17.23;14.37;;;;;;;4.00;nan;104223.00;5068071;28;20031;-62
2022/03/19 06:06:56;;;;;;;19.20;13.93;;;;;;;4.02;nan;104233.44;5068091;28;20400;-63
2022/03/19 06:09:22;;;;;;;16.83;13.77;;;;;;;4.02;nan;104223.16;5067922;28;20389;-64
2022/03/19 06:11:47;;;;;;;20.57;13.53;;;;;;;4.02;nan;104229.22;5067991;28;20520;-62
2022/03/19 06:14:13;;;;;;;16.83;14.23;;;;;;;4.02;nan;104231.78;5067299;28;20028;-64
2022/03/19 06:16:38;;;;;;;18.20;13.43;;;;;;;4.04;nan;104224.25;5065994;28;20163;-65
2022/03/19 06:19:03;;;;;;;21.30;14.40;;;;;;;4.06;nan;104226.28;5059855;28;20028;-61
2022/03/19 06:21:29;;;;;;;18.30;15.03;;;;;;;4.10;nan;104224.06;5060571;28;20025;-63
2022/03/19 06:23:55;;;;;;;20.23;13.90;;;;;;;4.12;nan;104230.28;5054509;28;20024;-62
2022/03/19 06:26:23;;;;;;;17.00;13.73;;;;;;;4.15;nan;104230.63;5067127;28;20031;-63
2022/03/19 06:28:48;;;;;;;18.53;13.97;;;;;;;4.18;nan;104230.94;5066705;28;20161;-60
2022/03/19 06:31:13;;;;;;;18.17;13.80;;;;;;;4.23;nan;104232.38;5068005;28;20115;-63
2022/03/19 06:33:44;;;;;;;18.27;13.80;;;;;;;4.28;nan;104227.78;5064865;28;20021;-62
2022/03/19 06:38:54;;;;;;;17.00;13.20;;;;;;;4.43;nan;104233.72;5058673;28;20160;-62
2022/03/19 06:41:21;;;;;;;18.47;12.50;;;;;;;4.53;nan;104244.25;5045040;28;20013;-62
2022/03/19 06:43:47;;;;;;;20.20;13.90;;;;;;;4.62;nan;104244.41;5044691;28;20055;-63
2022/03/19 06:46:12;;;;;;;21.40;14.23;;;;;;;4.75;nan;104240.63;5048443;28;20056;-61
2022/03/19 06:48:37;;;;;;;16.67;12.88;;;;;;;4.91;nan;104243.22;5051186;28;20106;-59
2022/03/19 06:51:03;;;;;;;17.57;13.10;;;;;;;5.01;nan;104245.13;5052832;28;20020;-63
2022/03/19 06:53:28;;;;;;;19.70;13.30;;;;;;;5.09;nan;104240.84;5065233;28;20047;-61
2022/03/19 06:55:54;;;;;;;18.77;13.07;;;;;;;5.20;nan;104240.34;5069082;28;20380;-62
2022/03/19 06:58:21;;;;;;;20.08;12.93;;;;;;;5.34;nan;104235.78;5068503;28;20096;-62
2022/03/19 07:00:47;;;;;;;15.18;12.35;;;;;;;5.52;nan;104237.75;5069416;28;20063;-60
2022/03/19 07:03:12;;;;;;;19.70;12.65;;;;;;;5.82;nan;104237.41;5052058;28;20032;-64
2022/03/19 07:05:38;;;;;;;14.80;11.93;;;;;;;6.11;nan;104234.44;5071251;28;20029;-62
2022/03/19 07:08:08;;;;;;;14.18;12.02;;;;;;;6.51;nan;104229.06;5053751;28;20440;-63
2022/03/19 07:10:33;;;;;;;11.63;10.35;;;;;;;6.83;nan;104229.78;5059310;28;20484;-62
2022/03/19 07:12:58;;;;;;;20.48;11.35;;;;;;;7.04;nan;104229.22;5068548;28;20056;-60
2022/03/19 07:15:29;;;;;;;16.45;10.88;;;;;;;7.08;nan;104233.94;5067888;28;20396;-63
2022/03/19 07:18:00;;;;;;;16.90;10.77;;;;;;;6.92;nan;104232.38;5050500;28;20032;-62
2022/03/19 07:20:27;;;;;;;15.07;10.63;;;;;;;7.09;nan;104233.16;5057525;28;20055;-62
2022/03/19 07:22:54;;;;;;;12.57;9.95;;;;;;;7.30;nan;104229.25;5062245;28;20032;-63
2022/03/19 07:25:26;;;;;;;15.65;11.15;;;;;;;7.50;nan;104240.63;5070813;28;20028;-63
2022/03/19 07:27:53;;;;;;;14.13;10.18;;;;;;;7.49;nan;104237.91;5065274;28;20112;-62
2022/03/19 07:30:19;;;;;;;13.25;9.93;;;;;;;7.59;nan;104235.47;5050972;28;20029;-64
2022/03/19 07:32:45;;;;;;;13.30;9.52;;;;;;;7.82;nan;104231.69;5037724;28;20024;-61
2022/03/19 07:35:13;;;;;;;15.27;10.43;;;;;;;8.22;nan;104233.75;5070762;28;20036;-61
2022/03/19 07:37:40;;;;;;;14.45;9.75;;;;;;;8.47;nan;104226.63;5068828;28;20089;-63
2022/03/19 07:40:07;;;;;;;12.75;9.02;;;;;;;8.77;nan;104226.84;5058027;28;20025;-63
2022/03/19 07:42:34;;;;;;;15.07;10.38;;;;;;;9.20;nan;104229.00;5050627;28;20036;-62
2022/03/19 07:45:00;;;;;;;13.18;9.52;;;;;;;9.42;nan;104223.22;5050961;28;20025;-60
2022/03/19 07:47:25;;;;;;;16.05;9.10;;;;;;;9.53;nan;104230.28;5062771;28;20067;-62
2022/03/19 07:49:50;;;;;;;15.52;9.63;;;;;;;10.11;nan;104213.72;5059336;28;20505;-61
2022/03/19 07:52:16;;;;;;;12.35;9.15;;;;;;;10.87;nan;104215.06;5048905;28;20435;-62
2022/03/19 07:54:41;;;;;;;12.73;8.57;;;;;;;11.40;nan;104213.34;5048830;28;20043;-59
2022/03/19 07:57:08;;;;;;;14.65;7.82;;;;;;;12.16;nan;104215.03;5049742;28;20392;-62
2022/03/19 07:59:33;;;;;;;13.10;8.60;;;;;;;12.34;nan;104218.19;5048937;28;20091;-62
2022/03/19 08:01:59;;;;;;;11.13;7.85;;;;;;;12.56;nan;104222.44;5050026;28;20029;-60
2022/03/19 08:04:25;;;;;;;12.20;7.80;;;;;;;12.82;nan;104215.78;5050202;28;20024;-62
2022/03/19 08:06:53;;;;;;;13.15;8.50;;;;;;;13.15;nan;104208.69;5050292;28;20029;-62
2022/03/19 08:09:19;;;;;;;12.02;7.20;;;;;;;12.92;nan;104207.88;5049638;28;20037;-63
2022/03/19 08:11:45;;;;;;;14.73;7.43;;;;;;;12.80;nan;104207.84;5050135;28;20040;-62
2022/03/19 08:14:14;;;;;;;12.65;7.82;;;;;;;13.16;nan;104205.31;5050504;28;20380;-62
2022/03/19 08:16:39;;;;;;;13.00;8.23;;;;;;;13.16;nan;104212.22;5050214;28;20028;-63
2022/03/19 08:19:05;;;;;;;11.52;8.10;;;;;;;13.63;nan;104200.94;5050415;28;20070;-63
2022/03/19 08:21:30;;;;;;;13.93;8.10;;;;;;;13.71;nan;104208.41;5049029;28;20470;-62
2022/03/19 08:23:56;;;;;;;9.38;6.90;;;;;;;13.34;nan;104212.69;5050094;28;20067;-63
2022/03/19 08:26:21;;;;;;;10.60;6.85;;;;;;;13.38;nan;104206.00;5049547;28;20443;-62
2022/03/19 08:28:46;;;;;;;10.82;6.70;;;;;;;13.64;nan;104227.88;5048760;28;20021;-63
2022/03/19 08:31:11;;;;;;;11.68;6.35;;;;;;;12.56;nan;104223.38;5051673;28;20070;-63
2022/03/19 08:33:37;;;;;;;10.23;7.88;;;;;;;13.05;nan;104224.41;5049185;28;20032;-63
2022/03/19 08:36:02;;;;;;;13.13;7.60;;;;;;;12.44;nan;104212.00;5048663;28;20564;-59
2022/03/19 08:41:11;;;;;;;10.73;6.70;;;;;;;13.01;nan;104206.75;5048718;28;20176;-62
2022/03/19 08:43:37;;;;;;;10.60;6.10;;;;;;;13.34;nan;104212.69;5049076;28;20029;-63
2022/03/19 08:46:03;;;;;;;10.20;6.13;;;;;;;13.66;nan;104210.66;5049287;28;20081;-61
2022/03/19 08:48:28;;;;;;;8.38;6.10;;;;;;;13.52;nan;104214.84;5049336;28;20047;-63
2022/03/19 08:50:53;;;;;;;10.95;7.72;;;;;;;13.25;nan;104206.78;5048853;28;20039;-62
2022/03/19 08:53:19;;;;;;;9.88;5.85;;;;;;;12.94;nan;104211.50;5049825;28;20501;-63
2022/03/19 08:55:45;;;;;;;9.00;6.68;;;;;;;13.28;nan;104213.13;5058574;28;20440;-62
2022/03/19 08:58:13;;;;;;;8.93;5.95;;;;;;;13.23;nan;104203.16;5067427;28;20515;-62
2022/03/19 09:00:40;;;;;;;11.07;6.18;;;;;;;13.06;nan;104210.63;5066189;28;20524;-64
2022/03/19 09:03:06;;;;;;;8.30;6.53;;;;;;;13.24;nan;104205.00;5053638;28;20461;-62
2022/03/19 09:05:32;;;;;;;10.02;6.10;;;;;;;13.16;nan;104201.81;5055811;28;20052;-61
2022/03/19 09:07:57;;;;;;;10.98;6.45;;;;;;;13.34;nan;104199.66;5054762;28;20033;-64
2022/03/19 09:10:23;;;;;;;10.15;6.20;;;;;;;13.42;nan;104198.53;5052227;28;20025;-64
2022/03/19 09:12:48;;;;;;;11.07;6.88;;;;;;;13.55;nan;104194.25;5057525;28;20020;-64
2022/03/19 09:15:13;;;;;;;11.30;7.25;;;;;;;13.57;nan;104195.28;5049122;28;20035;-64
2022/03/19 09:17:39;;;;;;;13.13;6.88;;;;;;;13.11;nan;104198.88;5053822;28;20033;-64
2022/03/19 09:20:05;;;;;;;12.68;5.88;;;;;;;13.09;nan;104196.16;5056654;28;20029;-63
2022/03/19 09:22:31;;;;;;;12.52;7.28;;;;;;;12.84;nan;104188.16;5056241;28;20086;-61
2022/03/19 09:24:57;;;;;;;7.78;5.63;;;;;;;12.96;nan;104193.41;5048525;28;20032;-63
2022/03/19 09:27:22;;;;;;;13.98;6.25;;;;;;;12.66;nan;104185.97;5057960;28;20067;-64
2022/03/19 09:29:48;;;;;;;11.13;6.85;;;;;;;12.78;nan;104198.09;5059362;28;20370;-63
2022/03/19 09:32:14;;;;;;;14.20;6.63;;;;;;;12.97;nan;104185.69;5056333;28;20457;-64
2022/03/19 09:34:40;;;;;;;8.32;6.13;;;;;;;13.29;nan;104182.78;5067865;28;20043;-64
2022/03/19 09:37:05;;;;;;;11.32;5.80;;;;;;;13.28;nan;104188.78;5065340;28;20394;-61
2022/03/19 09:39:30;;;;;;;11.27;6.13;;;;;;;13.21;nan;104175.31;5051308;28;20041;-62
2022/03/19 09:41:56;;;;;;;11.93;6.68;;;;;;;12.97;nan;104172.69;5057200;28;20033;-62
2022/03/19 09:44:26;;;;;;;12.48;6.43;;;;;;;13.09;nan;104166.59;5045749;28;20050;-65
2022/03/19 09:46:52;;;;;;;12.85;7.00;;;;;;;12.93;nan;104172.34;5045868;28;20107;-63
2022/03/19 09:49:17;;;;;;;11.88;5.97;;;;;;;12.79;nan;104174.78;5045748;28;20059;-65
2022/03/19 09:51:50;;;;;;;10.82;5.40;;;;;;;12.55;nan;104173.81;5046761;28;20524;-63
2022/03/19 09:54:15;;;;;;;11.95;5.93;;;;;;;12.23;nan;104167.94;5050221;28;20025;-63
2022/03/19 09:56:40;;;;;;;10.25;5.03;;;;;;;12.38;nan;104159.53;5060911;28;20464;-63
2022/03/19 09:59:06;;;;;;;10.07;4.85;;;;;;;12.13;nan;104159.41;5055221;28;20521;-64
2022/03/19 10:01:33;;;;;;;9.85;5.68;;;;;;;12.39;nan;104154.44;5049261;28;20082;-64
2022/03/19 10:04:03;;;;;;;11.63;4.93;;;;;;;12.26;nan;104162.97;5050651;28;20044;-63
2022/03/19 10:09:21;;;;;;;11.63;4.72;;;;;;;11.96;nan;104154.56;5047947;28;20044;-64
2022/03/19 10:11:49;;;;;;;9.95;5.32;;;;;;;12.14;nan;104149.94;5029688;28;20072;-63
2022/03/19 10:14:24;;;;;;;7.97;4.00;;;;;;;12.24;nan;104143.75;5048227;28;20151;-63
2022/03/19 10:16:51;;;;;;;8.73;4.10;;;;;;;12.23;nan;104135.03;5047388;28;20035;-63
2022/03/19 10:19:17;;;;;;;8.93;5.40;;;;;;;12.01;nan;104135.94;5047991;28;20053;-63
2022/03/19 10:21:44;;;;;;;8.82;4.07;;;;;;;12.08;nan;104126.00;5047285;28;20025;-64
2022/03/19 10:24:28;;;;;;;8.93;4.20;;;;;;;12.05;nan;104128.38;5048062;28;20447;-62
2022/03/19 10:26:54;;;;;;;7.90;4.15;;;;;;;11.97;nan;104114.75;5047728;28;20052;-64
2022/03/19 10:29:28;;;;;;;6.20;3.97;;;;;;;12.03;nan;104106.56;5047381;28;20078;-64
2022/03/19 10:32:03;;;;;;;11.43;4.53;;;;;;;12.13;nan;104098.72;5048094;28;20519;-63
2022/03/19 10:34:30;;;;;;;9.57;3.85;;;;;;;12.33;nan;104105.47;5048143;28;20505;-63
2022/03/19 10:36:55;;;;;;;7.97;3.55;;;;;;;12.21;nan;104097.63;5047110;28;20037;-64
2022/03/19 10:39:25;;;;;;;6.82;3.88;;;;;;;12.22;nan;104090.72;5047562;28;20458;-64
2022/03/19 10:41:50;;;;;;;6.78;3.30;;;;;;;12.47;nan;104085.72;5047078;28;20370;-63
2022/03/19 10:44:18;;;;;;;10.43;3.72;;;;;;;12.38;nan;104085.00;5046811;28;20035;-63
2022/03/19 10:46:52;;;;;;;7.70;3.85;;;;;;;12.55;nan;104080.19;5046835;28;20029;-63
2022/03/19 10:49:18;;;;;;;11.73;4.47;;;;;;;12.48;nan;104079.69;5045773;28;20454;-64
2022/03/19 10:51:46;;;;;;;6.32;3.42;;;;;;;12.51;nan;104080.72;5048980;28;20388;-64
2022/03/19 10:54:12;;;;;;;7.05;3.33;;;;;;;12.54;nan;104063.66;5056373;28;20484;-64
2022/03/19 10:56:37;;;;;;;9.13;3.40;;;;;;;12.74;nan;104061.66;5046928;28;20107;-64
2022/03/19 10:59:02;;;;;;;8.75;3.00;;;;;;;12.61;nan;104060.72;5046559;28;20231;-64
2022/03/19 11:01:29;;;;;;;7.18;3.30;;;;;;;12.76;nan;104061.75;5047249;28;20396;-64
2022/03/19 11:03:55;;;;;;;9.02;3.47;;;;;;;12.83;nan;104056.22;5047259;28;20032;-64
2022/03/19 11:06:25;;;;;;;10.18;3.28;;;;;;;12.83;nan;104056.22;5058821;28;20056;-60
2022/03/19 11:08:51;;;;;;;9.82;3.42;;;;;;;12.56;nan;104067.28;5065606;28;20287;-64
2022/03/19 11:11:18;;;;;;;5.57;2.97;;;;;;;12.41;nan;104051.41;5065998;28;20086;-63
2022/03/19 11:13:54;;;;;;;6.93;2.42;;;;;;;12.25;nan;104050.25;5066062;28;20039;-64
2022/03/19 11:16:21;;;;;;;6.28;3.22;;;;;;;12.40;nan;104040.91;5056026;28;20024;-63
2022/03/19 11:18:52;;;;;;;6.93;2.83;;;;;;;12.53;nan;104032.34;5046761;28;20466;-62
2022/03/19 11:21:19;;;;;;;6.53;2.67;;;;;;;12.80;nan;104024.78;5046190;28;20025;-62
2022/03/19 11:23:53;;;;;;;7.95;2.65;;;;;;;12.89;nan;104008.94;5047667;28;20029;-62
2022/03/19 11:26:23;;;;;;;6.88;2.67;;;;;;;12.95;nan;104015.47;5046652;28;20033;-63
2022/03/19 11:28:49;;;;;;;5.03;2.60;;;;;;;12.91;nan;104017.75;5045435;28;20024;-64
2022/03/19 11:31:24;;;;;;;5.57;2.45;;;;;;;13.01;nan;104014.09;5049383;28;20032;-64
2022/03/19 11:33:49;;;;;;;5.15;2.65;;;;;;;12.89;nan;103996.81;5063925;28;20025;-64
2022/03/19 11:36:15;;;;;;;4.32;2.22;;;;;;;12.91;nan;104000.44;5068204;28;20024;-64
2022/03/19 11:38:48;;;;;;;5.70;2.47;;;;;;;13.00;nan;103991.50;5070315;28;20303;-63
2022/03/19 11:41:22;;;;;;;5.05;2.15;;;;;;;13.12;nan;103989.75;5052165;28;20072;-64
2022/03/19 11:43:49;;;;;;;5.80;2.40;;;;;;;13.26;nan;104000.28;5049902;28;20373;-64
2022/03/19 11:46:14;;;;;;;3.40;2.10;;;;;;;13.35;nan;103993.09;5049669;28;20032;-61